createdAt,value
2023-01-27T00:00:36.307Z,94.01
2023-01-27T00:03:03.077Z,93.94
2023-01-27T00:05:29.758Z,93.69
2023-01-27T00:07:58.695Z,93.85
2023-01-27T00:10:26.167Z,94.23
2023-01-27T00:13:11.837Z,93.87
2023-01-27T00:15:38.760Z,93.91
2023-01-27T00:18:05.965Z,94.22
2023-01-27T00:20:51.798Z,94.18
2023-01-27T00:23:39.815Z,94.14
2023-01-27T00:26:10.268Z,94.49
2023-01-27T00:28:39.140Z,94.28
2023-01-27T00:31:09.758Z,94.43
2023-01-27T00:33:36.447Z,94.19
2023-01-27T00:36:06.293Z,94.28
2023-01-27T00:38:35.120Z,94.34
2023-01-27T00:41:20.268Z,94.35
2023-01-27T00:43:48.931Z,94.74
2023-01-27T00:46:17.477Z,94.59
2023-01-27T00:48:44.609Z,94.74
2023-01-27T00:51:12.039Z,94.95
2023-01-27T00:53:38.816Z,94.58
2023-01-27T00:56:06.197Z,94.83
2023-01-27T00:58:32.991Z,94.80
2023-01-27T01:01:01.821Z,94.92
2023-01-27T01:03:32.990Z,94.97
2023-01-27T01:06:05.633Z,95.11
2023-01-27T01:08:33.742Z,95.08
2023-01-27T01:11:00.572Z,94.94
2023-01-27T01:13:28.450Z,94.94
2023-01-27T01:15:56.164Z,95.04
2023-01-27T01:18:24.412Z,95.22
2023-01-27T01:20:51.018Z,95.36
2023-01-27T01:23:18.126Z,95.35
2023-01-27T01:25:53.270Z,95.58
2023-01-27T01:28:19.959Z,95.33
2023-01-27T01:30:46.654Z,95.35
2023-01-27T01:33:13.822Z,95.44
2023-01-27T01:35:40.507Z,95.40
2023-01-27T01:38:07.209Z,95.39
2023-01-27T01:40:33.950Z,95.58
2023-01-27T01:43:03.984Z,95.50
2023-01-27T01:45:36.864Z,95.52
2023-01-27T01:48:11.859Z,95.71
2023-01-27T01:50:42.754Z,95.75
2023-01-27T01:53:10.532Z,95.49
2023-01-27T01:55:39.578Z,95.53
2023-01-27T01:58:08.319Z,95.83
2023-01-27T02:00:35.055Z,95.88
2023-01-27T02:03:03.676Z,95.97
2023-01-27T02:05:34.762Z,96.20
2023-01-27T02:08:09.620Z,96.10
2023-01-27T02:10:36.382Z,95.83
2023-01-27T02:13:03.208Z,96.27
2023-01-27T02:15:33.070Z,95.83
2023-01-27T02:18:01.481Z,96.42
2023-01-27T02:20:31.602Z,96.28
2023-01-27T02:23:17.017Z,96.50
2023-01-27T02:25:59.046Z,96.57
2023-01-27T02:28:30.750Z,96.33
2023-01-27T02:30:58.235Z,96.11
2023-01-27T02:33:25.820Z,96.43
2023-01-27T02:36:10.823Z,96.33
2023-01-27T02:38:42.932Z,96.18
2023-01-27T02:41:12.019Z,96.28
2023-01-27T02:43:38.617Z,96.82
2023-01-27T02:46:05.314Z,96.94
2023-01-27T02:48:31.964Z,96.74
2023-01-27T02:50:58.938Z,96.54
2023-01-27T02:53:25.724Z,96.77
2023-01-27T02:55:52.401Z,97.03
2023-01-27T02:58:19.044Z,97.12
2023-01-27T03:00:45.795Z,97.03
2023-01-27T03:03:12.430Z,97.30
2023-01-27T03:05:39.188Z,97.23
2023-01-27T03:08:05.839Z,97.38
2023-01-27T03:10:32.492Z,97.02
2023-01-27T03:12:59.140Z,97.47
2023-01-27T03:15:44.035Z,97.23
2023-01-27T03:18:16.347Z,97.48
2023-01-27T03:20:46.537Z,97.23
2023-01-27T03:23:14.896Z,97.32
2023-01-27T03:25:43.738Z,97.40
2023-01-27T03:28:11.017Z,97.27
2023-01-27T03:30:38.345Z,97.16
2023-01-27T03:33:06.487Z,97.31
2023-01-27T03:35:48.359Z,97.22
2023-01-27T03:38:35.406Z,97.09
2023-01-27T03:41:23.444Z,97.37
2023-01-27T03:44:08.937Z,97.70
2023-01-27T03:46:35.608Z,97.73
2023-01-27T03:49:02.220Z,97.59
2023-01-27T03:51:28.925Z,97.94
2023-01-27T03:53:55.609Z,97.96
2023-01-27T03:56:23.010Z,97.84
2023-01-27T03:58:50.654Z,97.63
2023-01-27T04:01:20.336Z,97.64
2023-01-27T04:04:06.201Z,97.63
2023-01-27T04:07:14.073Z,97.49
2023-01-27T04:09:40.710Z,98.01
2023-01-27T04:12:07.503Z,98.01
2023-01-27T04:14:43.952Z,98.02
2023-01-27T04:17:14.036Z,97.71
2023-01-27T04:19:41.395Z,97.82
2023-01-27T04:22:10.159Z,97.66
2023-01-27T04:24:36.790Z,97.96
2023-01-27T04:27:06.360Z,97.99
2023-01-27T04:29:36.026Z,97.80
2023-01-27T04:32:06.058Z,97.99
2023-01-27T04:34:32.976Z,98.15
2023-01-27T04:36:59.963Z,97.94
2023-01-27T04:39:26.944Z,98.26
2023-01-27T04:41:53.666Z,98.38
2023-01-27T04:44:20.424Z,98.04
2023-01-27T04:46:47.712Z,98.27
2023-01-27T04:49:14.709Z,98.08
2023-01-27T04:51:41.415Z,98.43
2023-01-27T04:54:08.138Z,98.16
2023-01-27T04:56:37.198Z,98.18
2023-01-27T04:59:15.173Z,98.32
2023-01-27T05:01:45.440Z,98.45
2023-01-27T05:04:12.665Z,98.33
2023-01-27T05:06:40.822Z,98.43
2023-01-27T05:09:09.390Z,98.39
2023-01-27T05:11:38.759Z,98.52
2023-01-27T05:14:07.573Z,97.95
2023-01-27T05:16:34.665Z,98.58
2023-01-27T05:19:02.213Z,98.65
2023-01-27T05:21:28.907Z,98.55
2023-01-27T05:23:55.614Z,98.68
2023-01-27T05:26:27.776Z,98.28
2023-01-27T05:28:57.728Z,98.65
2023-01-27T05:31:27.630Z,98.74
2023-01-27T05:33:55.676Z,98.83
2023-01-27T05:36:24.485Z,98.67
2023-01-27T05:38:51.322Z,98.60
2023-01-27T05:41:19.803Z,98.53
2023-01-27T05:43:51.383Z,98.84
2023-01-27T05:46:26.678Z,98.55
2023-01-27T05:48:55.784Z,98.57
2023-01-27T05:51:24.269Z,98.58
2023-01-27T05:53:51.374Z,98.86
2023-01-27T05:56:19.048Z,98.80
2023-01-27T05:58:46.091Z,98.41
2023-01-27T06:01:21.098Z,98.47
2023-01-27T06:03:48.495Z,98.57
2023-01-27T06:06:18.160Z,98.57
2023-01-27T06:08:47.700Z,98.76
2023-01-27T06:11:15.447Z,98.43
2023-01-27T06:13:42.938Z,98.42
2023-01-27T06:16:12.409Z,98.66
2023-01-27T06:18:41.866Z,98.53
2023-01-27T06:21:10.303Z,98.62
2023-01-27T06:23:37.337Z,98.52
2023-01-27T06:26:07.508Z,98.29
2023-01-27T06:28:34.168Z,98.39
2023-01-27T06:31:19.567Z,97.98
2023-01-27T06:33:46.452Z,98.58
2023-01-27T06:36:15.581Z,98.49
2023-01-27T06:38:42.862Z,98.44
2023-01-27T06:41:09.544Z,98.26
2023-01-27T06:43:36.380Z,98.50
2023-01-27T06:46:05.748Z,98.31
2023-01-27T06:48:33.381Z,98.44
2023-01-27T06:51:00.576Z,98.37
2023-01-27T06:53:27.297Z,98.49
2023-01-27T06:55:58.937Z,98.60
2023-01-27T06:58:25.719Z,98.12
2023-01-27T07:00:52.608Z,98.54
2023-01-27T07:03:19.279Z,97.96
2023-01-27T07:05:45.984Z,98.36
2023-01-27T07:08:12.617Z,98.27
2023-01-27T07:10:39.543Z,98.67
2023-01-27T07:13:14.170Z,98.27
2023-01-27T07:15:41.278Z,98.23
2023-01-27T07:18:09.410Z,98.23
2023-01-27T07:20:36.078Z,98.69
2023-01-27T07:23:05.397Z,98.44
2023-01-27T07:25:34.494Z,98.70
2023-01-27T07:28:02.413Z,98.72
2023-01-27T07:30:33.952Z,98.30
2023-01-27T07:33:09.505Z,98.59
2023-01-27T07:35:37.258Z,98.88
2023-01-27T07:38:05.149Z,98.82
2023-01-27T07:40:31.957Z,98.57
2023-01-27T07:42:59.725Z,98.59
2023-01-27T07:45:27.297Z,98.71
2023-01-27T07:47:54.084Z,98.86
2023-01-27T07:50:21.729Z,98.74
2023-01-27T07:52:48.352Z,98.93
2023-01-27T07:55:15.251Z,98.37
2023-01-27T07:57:42.265Z,98.85
2023-01-27T08:00:09.619Z,98.41
2023-01-27T08:02:36.297Z,98.52
2023-01-27T08:05:03.065Z,98.88
2023-01-27T08:07:32.229Z,98.46
2023-01-27T08:09:58.956Z,98.71
2023-01-27T08:12:25.541Z,98.74
2023-01-27T08:14:52.170Z,98.89
2023-01-27T08:17:18.825Z,98.58
2023-01-27T08:19:45.474Z,98.62
2023-01-27T08:22:12.130Z,98.83
2023-01-27T08:24:38.740Z,98.80
2023-01-27T08:27:08.117Z,98.99
2023-01-27T08:29:34.947Z,98.89
2023-01-27T08:32:01.560Z,99.04
2023-01-27T08:34:28.198Z,98.96
2023-01-27T08:36:54.959Z,99.00
2023-01-27T08:39:21.874Z,98.89
2023-01-27T08:41:48.545Z,98.93
2023-01-27T08:44:15.218Z,98.98
2023-01-27T08:46:41.999Z,98.66
2023-01-27T08:49:08.911Z,98.89
2023-01-27T08:51:35.853Z,98.88
2023-01-27T08:54:02.683Z,99.21
2023-01-27T08:56:30.798Z,98.54
2023-01-27T08:58:57.622Z,98.98
2023-01-27T09:01:24.503Z,98.90
2023-01-27T09:03:51.300Z,98.79
2023-01-27T09:06:18.679Z,98.87
2023-01-27T09:09:05.942Z,98.76
2023-01-27T09:11:32.650Z,98.81
2023-01-27T09:13:59.301Z,98.63
2023-01-27T09:16:26.931Z,99.11
2023-01-27T09:18:53.598Z,98.82
2023-01-27T09:21:20.395Z,98.66
2023-01-27T09:23:49.614Z,98.79
2023-01-27T09:26:16.336Z,98.38
2023-01-27T09:28:43.117Z,98.71
2023-01-27T09:31:10.029Z,98.76
2023-01-27T09:33:38.731Z,98.65
2023-01-27T09:36:14.788Z,98.57
2023-01-27T09:39:08.384Z,98.72
2023-01-27T09:41:40.906Z,98.39
2023-01-27T09:44:16.126Z,98.16
2023-01-27T09:47:10.718Z,98.37
2023-01-27T09:50:07.945Z,98.23
2023-01-27T09:53:05.281Z,98.34
2023-01-27T09:55:58.365Z,97.93
2023-01-27T09:59:07.597Z,98.01
2023-01-27T10:01:56.278Z,97.80
2023-01-27T10:05:04.309Z,97.75
2023-01-27T10:07:48.742Z,97.69
2023-01-27T10:10:29.660Z,97.67
2023-01-27T10:13:03.843Z,97.70
2023-01-27T10:16:05.691Z,97.78
2023-01-27T10:18:53.323Z,97.82
2023-01-27T10:21:43.388Z,97.78
2023-01-27T10:24:19.303Z,97.83
2023-01-27T10:26:59.675Z,97.81
2023-01-27T10:29:32.772Z,97.52
2023-01-27T10:32:09.672Z,97.67
2023-01-27T10:34:42.319Z,97.66
2023-01-27T10:37:30.665Z,97.54
2023-01-27T10:40:08.783Z,97.40
2023-01-27T10:42:59.164Z,97.29
2023-01-27T10:45:37.717Z,97.14
2023-01-27T10:48:49.532Z,97.24
2023-01-27T10:51:26.462Z,97.11
2023-01-27T10:53:58.612Z,97.14
2023-01-27T10:56:53.480Z,96.94
2023-01-27T10:59:55.289Z,96.86
2023-01-27T11:02:56.821Z,96.82
2023-01-27T11:05:53.838Z,96.57
2023-01-27T11:08:24.326Z,96.44
2023-01-27T11:11:15.382Z,96.60
2023-01-27T11:13:42.752Z,96.51
2023-01-27T11:16:16.546Z,96.71
2023-01-27T11:18:46.160Z,96.70
2023-01-27T11:21:21.460Z,96.48
2023-01-27T11:23:53.583Z,96.19
2023-01-27T11:26:37.215Z,96.11
2023-01-27T11:29:09.581Z,95.98
2023-01-27T11:31:53.834Z,95.99
2023-01-27T11:34:28.168Z,96.30
2023-01-27T11:36:54.914Z,96.28
2023-01-27T11:39:21.812Z,96.12
2023-01-27T11:41:54.244Z,96.00
2023-01-27T11:44:24.330Z,95.82
2023-01-27T11:46:52.438Z,95.71
2023-01-27T11:49:32.081Z,95.72
2023-01-27T11:52:05.869Z,95.77
2023-01-27T11:54:48.563Z,95.28
2023-01-27T11:57:22.272Z,95.45
2023-01-27T11:59:55.409Z,95.16
2023-01-27T12:02:36.365Z,95.17
2023-01-27T12:05:14.670Z,95.16
2023-01-27T12:08:00.219Z,95.17
2023-01-27T12:10:33.012Z,95.13
2023-01-27T12:13:20.694Z,95.19
2023-01-27T12:16:00.688Z,94.86
2023-01-27T12:18:31.770Z,94.66
2023-01-27T12:21:04.054Z,94.81
2023-01-27T12:23:40.710Z,94.60
2023-01-27T12:26:10.330Z,94.60
2023-01-27T12:28:42.031Z,94.16
2023-01-27T12:31:12.198Z,94.55
2023-01-27T12:33:44.496Z,94.16
2023-01-27T12:36:17.576Z,94.06
2023-01-27T12:38:56.448Z,94.20
2023-01-27T12:41:27.220Z,93.96
2023-01-27T12:43:57.172Z,94.04
2023-01-27T12:46:26.480Z,93.90
2023-01-27T12:49:02.721Z,93.98
2023-01-27T12:51:55.621Z,93.88
2023-01-27T12:54:24.880Z,93.72
2023-01-27T12:56:53.365Z,93.71
2023-01-27T12:59:23.647Z,93.50
2023-01-27T13:02:25.200Z,93.62
2023-01-27T13:04:54.822Z,93.56
2023-01-27T13:07:31.063Z,93.29
2023-01-27T13:10:19.208Z,93.08
2023-01-27T13:12:54.937Z,92.77
2023-01-27T13:15:24.217Z,92.70
2023-01-27T13:17:57.593Z,92.54
2023-01-27T13:20:45.056Z,92.40
2023-01-27T13:23:20.545Z,92.22
2023-01-27T13:26:09.574Z,92.00
2023-01-27T13:28:53.123Z,92.05
2023-01-27T13:31:29.244Z,91.82
2023-01-27T13:34:20.588Z,92.00
2023-01-27T13:37:16.265Z,91.28
2023-01-27T13:39:58.049Z,91.44
2023-01-27T13:42:38.620Z,91.22
2023-01-27T13:45:22.623Z,91.13
2023-01-27T13:48:10.281Z,90.61
2023-01-27T13:50:44.673Z,90.53
2023-01-27T13:53:18.840Z,90.52
2023-01-27T13:56:03.281Z,90.18
2023-01-27T13:58:35.724Z,90.01
2023-01-27T14:01:32.340Z,89.84
2023-01-27T14:04:09.872Z,89.45
2023-01-27T14:07:11.418Z,89.53
2023-01-27T14:09:59.227Z,89.32
2023-01-27T14:12:47.535Z,88.93
2023-01-27T14:15:36.227Z,88.53
2023-01-27T14:18:21.216Z,88.58
2023-01-27T14:21:14.292Z,88.25
2023-01-27T14:24:10.821Z,87.68
2023-01-27T14:26:40.410Z,87.53
2023-01-27T14:29:41.099Z,87.19
2023-01-27T14:32:13.424Z,86.95
2023-01-27T14:34:46.084Z,86.36
2023-01-27T14:37:23.090Z,86.03
2023-01-27T14:39:57.755Z,85.60
2023-01-27T14:42:27.519Z,85.24
2023-01-27T14:45:32.308Z,85.15
2023-01-27T14:48:05.061Z,84.82
2023-01-27T14:50:32.739Z,84.78
2023-01-27T14:53:02.856Z,84.59
2023-01-27T14:56:04.702Z,84.48
2023-01-27T14:59:09.650Z,84.28
2023-01-27T15:01:45.028Z,84.16
2023-01-27T15:04:14.795Z,83.97
2023-01-27T15:06:55.103Z,83.76
2023-01-27T15:09:38.726Z,83.66
2023-01-27T15:12:14.936Z,83.68
2023-01-27T15:15:03.289Z,83.36
2023-01-27T15:17:48.755Z,82.78
2023-01-27T15:20:36.161Z,82.80
2023-01-27T15:23:09.026Z,82.58
2023-01-27T15:25:40.309Z,82.64
2023-01-27T15:28:13.353Z,82.37
2023-01-27T15:30:41.030Z,82.12
2023-01-27T15:33:45.356Z,82.11
2023-01-27T15:36:27.035Z,81.82
2023-01-27T15:39:09.520Z,81.85
2023-01-27T15:41:54.906Z,81.92
2023-01-27T15:44:24.562Z,81.90
2023-01-27T15:46:53.721Z,81.62
2023-01-27T15:49:28.099Z,81.69
2023-01-27T15:52:07.917Z,81.49
2023-01-27T15:54:35.848Z,81.62
2023-01-27T15:57:06.688Z,81.59
2023-01-27T15:59:58.332Z,81.50
2023-01-27T16:02:33.164Z,81.47
2023-01-27T16:05:08.521Z,81.34
2023-01-27T16:07:37.827Z,81.32
2023-01-27T16:10:08.485Z,81.40
2023-01-27T16:12:43.227Z,81.27
2023-01-27T16:15:22.398Z,81.43
2023-01-27T16:18:15.336Z,81.42
2023-01-27T16:20:41.917Z,81.30
2023-01-27T16:23:15.724Z,81.48
2023-01-27T16:25:50.340Z,81.67
2023-01-27T16:28:31.075Z,81.48
2023-01-27T16:31:00.697Z,81.22
2023-01-27T16:33:37.048Z,81.24
2023-01-27T16:36:23.987Z,81.11
2023-01-27T16:38:51.909Z,81.21
2023-01-27T16:41:28.455Z,80.93
2023-01-27T16:44:05.400Z,80.79
2023-01-27T16:46:50.534Z,80.63
2023-01-27T16:49:24.788Z,80.54
2023-01-27T16:52:00.972Z,80.56
2023-01-27T16:54:42.787Z,80.54
2023-01-27T16:57:39.540Z,80.37
2023-01-27T17:00:18.022Z,80.24
2023-01-27T17:02:46.694Z,80.31
2023-01-27T17:05:17.071Z,80.57
2023-01-27T17:08:14.561Z,80.36
2023-01-27T17:10:56.545Z,80.22
2023-01-27T17:13:31.597Z,80.01
2023-01-27T17:15:59.476Z,80.29
2023-01-27T17:18:26.231Z,80.02
2023-01-27T17:20:53.234Z,80.27
2023-01-27T17:23:22.723Z,80.13
2023-01-27T17:25:50.253Z,80.27
2023-01-27T17:28:22.026Z,80.01
2023-01-27T17:30:50.657Z,80.15
2023-01-27T17:33:20.337Z,80.24
2023-01-27T17:36:00.652Z,80.25
2023-01-27T17:38:43.258Z,80.26
2023-01-27T17:41:32.646Z,80.04
2023-01-27T17:44:01.584Z,80.27
2023-01-27T17:46:33.899Z,79.96
2023-01-27T17:49:14.446Z,80.15
2023-01-27T17:51:46.864Z,80.00
2023-01-27T17:54:33.427Z,80.09
2023-01-27T17:57:06.978Z,80.21
2023-01-27T17:59:36.977Z,79.99
2023-01-27T18:02:11.817Z,80.12
2023-01-27T18:04:41.993Z,79.95
2023-01-27T18:07:11.476Z,79.99
2023-01-27T18:09:52.452Z,79.98
2023-01-27T18:12:29.560Z,79.92
2023-01-27T18:14:56.241Z,80.03
2023-01-27T18:17:25.890Z,80.06
2023-01-27T18:19:54.620Z,79.96
2023-01-27T18:22:22.411Z,80.17
2023-01-27T18:24:53.382Z,79.86
2023-01-27T18:27:39.731Z,80.10
2023-01-27T18:30:13.084Z,79.98
2023-01-27T18:32:42.088Z,80.31
2023-01-27T18:35:27.125Z,80.11
2023-01-27T18:38:05.152Z,80.34
2023-01-27T18:40:37.070Z,80.28
2023-01-27T18:43:05.395Z,80.11
2023-01-27T18:45:32.330Z,80.41
2023-01-27T18:47:59.663Z,80.43
2023-01-27T18:50:27.856Z,80.42
2023-01-27T18:52:55.303Z,80.24
2023-01-27T18:55:28.783Z,80.51
2023-01-27T18:58:00.150Z,80.45
2023-01-27T19:00:35.955Z,80.21
2023-01-27T19:03:03.697Z,80.28
2023-01-27T19:05:33.325Z,80.42
2023-01-27T19:08:00.539Z,80.60
2023-01-27T19:10:30.382Z,80.78
2023-01-27T19:12:58.957Z,80.47
2023-01-27T19:15:39.845Z,80.76
2023-01-27T19:18:19.919Z,80.70
2023-01-27T19:20:46.613Z,80.90
2023-01-27T19:23:15.846Z,80.75
2023-01-27T19:25:43.852Z,80.93
2023-01-27T19:28:20.449Z,81.05
2023-01-27T19:30:47.358Z,81.20
2023-01-27T19:33:22.677Z,81.39
2023-01-27T19:35:53.408Z,81.69
2023-01-27T19:38:20.349Z,81.87
2023-01-27T19:45:05.098Z,81.72
2023-01-27T19:47:31.708Z,82.17
2023-01-27T19:49:58.312Z,81.83
2023-01-27T20:00:54.434Z,82.08
2023-01-27T20:03:41.427Z,82.33
2023-01-27T20:06:31.186Z,82.58
2023-01-27T20:10:11.041Z,82.44
2023-01-27T20:12:38.714Z,82.46
2023-01-27T20:15:05.752Z,83.02
2023-01-27T20:17:32.408Z,82.84
2023-01-27T20:19:59.003Z,82.57
2023-01-27T20:22:26.421Z,83.14
2023-01-27T20:24:53.113Z,83.33
2023-01-27T20:34:53.161Z,83.72
2023-01-27T20:37:21.481Z,83.80
2023-01-27T20:39:48.112Z,83.86
2023-01-27T20:42:14.788Z,84.21
2023-01-27T20:44:41.413Z,83.87
2023-01-27T20:47:08.085Z,83.71
2023-01-27T20:49:35.647Z,84.27
2023-01-27T20:52:02.282Z,84.25
2023-01-27T20:54:30.694Z,84.47
2023-01-27T20:57:02.788Z,84.63
2023-01-27T20:59:29.561Z,84.50
2023-01-27T21:02:31.461Z,84.61
2023-01-27T21:04:58.238Z,84.34
2023-01-27T21:07:25.224Z,84.53
2023-01-27T21:09:53.572Z,84.29
2023-01-27T21:12:21.854Z,84.42
2023-01-27T21:14:48.591Z,84.39
2023-01-27T21:17:15.361Z,84.30
2023-01-27T21:19:42.057Z,84.32
2023-01-27T21:22:08.690Z,84.21
2023-01-27T21:24:35.724Z,84.59
2023-01-27T21:27:02.746Z,84.11
2023-01-27T21:29:32.050Z,84.50
2023-01-27T21:31:58.900Z,84.36
2023-01-27T21:34:27.221Z,84.05
2023-01-27T21:36:57.062Z,84.48
2023-01-27T21:39:23.960Z,84.19
2023-01-27T21:41:53.107Z,84.24
2023-01-27T21:44:48.383Z,84.09
2023-01-27T21:47:19.520Z,84.22
2023-01-27T21:50:04.368Z,83.96
2023-01-27T21:52:39.100Z,83.97
2023-01-27T21:55:08.767Z,84.36
2023-01-27T21:57:35.815Z,84.04
2023-01-27T22:00:05.270Z,84.34
2023-01-27T22:02:32.514Z,84.09
2023-01-27T22:04:59.258Z,84.38
2023-01-27T22:07:27.065Z,84.50
2023-01-27T22:09:53.735Z,84.24
2023-01-27T22:12:21.943Z,84.38
2023-01-27T22:14:48.515Z,84.42
2023-01-27T22:17:15.869Z,84.65
2023-01-27T22:19:42.486Z,84.88
2023-01-27T22:22:12.359Z,84.68
2023-01-27T22:24:39.044Z,84.54
2023-01-27T22:27:05.727Z,84.63
2023-01-27T22:29:32.379Z,84.66
2023-01-27T22:31:59.083Z,85.06
2023-01-27T22:34:25.757Z,85.38
2023-01-27T22:36:52.513Z,84.96
2023-01-27T22:39:19.541Z,85.06
2023-01-27T22:41:46.516Z,85.31
2023-01-27T22:44:14.488Z,85.19
2023-01-27T22:46:42.705Z,85.11
2023-01-27T22:49:10.321Z,85.50
2023-01-27T22:51:37.726Z,85.80
2023-01-27T22:54:04.626Z,85.28
2023-01-27T22:56:31.297Z,85.54
2023-01-27T22:58:57.977Z,85.96
2023-01-27T23:01:24.666Z,85.95
2023-01-27T23:03:51.353Z,85.79
2023-01-27T23:06:18.011Z,85.96
2023-01-27T23:08:46.579Z,85.63
2023-01-27T23:11:13.424Z,85.35
2023-01-27T23:13:40.167Z,85.61
2023-01-27T23:16:07.140Z,85.88
2023-01-27T23:18:33.842Z,85.67
2023-01-27T23:21:07.893Z,85.45
2023-01-27T23:23:35.904Z,85.81
2023-01-27T23:26:06.954Z,85.89
2023-01-27T23:28:34.165Z,85.61
2023-01-27T23:31:01.011Z,85.92
2023-01-27T23:33:30.148Z,85.76
2023-01-27T23:35:57.802Z,85.74
2023-01-27T23:38:32.573Z,85.92
2023-01-27T23:41:05.388Z,85.62
2023-01-27T23:43:32.220Z,85.63
2023-01-27T23:45:59.405Z,86.05
2023-01-27T23:48:26.592Z,85.87
2023-01-27T23:50:53.463Z,85.75
2023-01-27T23:53:20.522Z,85.82
2023-01-27T23:55:59.846Z,85.91
2023-01-27T23:58:27.325Z,85.82
